createdAt,value
2022-12-18T00:02:08.230Z,11.07
2022-12-18T00:07:11.020Z,17.52
2022-12-18T00:17:18.853Z,15.43
2022-12-18T00:22:21.573Z,15.20
2022-12-18T00:27:24.202Z,15.60
2022-12-18T00:32:26.880Z,22.70
2022-12-18T00:37:29.530Z,13.52
2022-12-18T00:42:50.571Z,13.20
2022-12-18T00:47:53.310Z,10.35
2022-12-18T00:52:55.981Z,12.73
2022-12-18T00:57:58.703Z,11.40
2022-12-18T01:03:01.535Z,19.05
2022-12-18T01:08:04.765Z,12.23
2022-12-18T01:13:07.494Z,22.60
2022-12-18T01:18:10.204Z,12.60
2022-12-18T01:23:12.898Z,8.93
2022-12-18T01:28:15.544Z,7.88
2022-12-18T01:33:18.225Z,15.82
2022-12-18T01:38:21.021Z,25.17
2022-12-18T01:43:23.893Z,14.83
2022-12-18T01:48:26.544Z,21.30
2022-12-18T01:53:29.844Z,11.90
2022-12-18T01:58:41.863Z,16.17
2022-12-18T02:03:45.634Z,17.48
2022-12-18T02:08:55.676Z,20.47
2022-12-18T02:14:38.769Z,17.42
2022-12-18T02:19:46.977Z,12.43
2022-12-18T02:25:22.865Z,12.27
2022-12-18T02:30:26.026Z,23.45
2022-12-18T02:35:31.611Z,11.33
2022-12-18T02:40:38.364Z,18.27
2022-12-18T02:45:59.340Z,21.00
2022-12-18T02:51:14.826Z,16.25
2022-12-18T02:56:27.436Z,26.85
2022-12-18T03:01:53.729Z,20.67
2022-12-18T03:07:06.395Z,16.75
2022-12-18T03:12:24.197Z,14.88
2022-12-18T03:17:32.019Z,7.03
2022-12-18T03:22:38.602Z,9.07
2022-12-18T03:27:47.723Z,9.53
2022-12-18T03:33:11.973Z,15.77
2022-12-18T03:38:19.862Z,17.27
2022-12-18T03:43:50.044Z,14.52
2022-12-18T03:49:09.997Z,13.27
2022-12-18T03:54:14.130Z,13.53
2022-12-18T03:59:27.406Z,15.60
2022-12-18T04:04:32.233Z,25.35
2022-12-18T04:09:39.615Z,14.20
2022-12-18T04:14:42.603Z,12.80
2022-12-18T04:19:46.043Z,16.30
2022-12-18T04:24:48.904Z,27.20
2022-12-18T04:30:00.357Z,12.55
2022-12-18T04:35:05.358Z,8.32
2022-12-18T04:40:09.598Z,24.13
2022-12-18T04:45:17.474Z,15.63
2022-12-18T04:50:21.281Z,13.63
2022-12-18T04:55:23.834Z,4.65
2022-12-18T05:00:26.580Z,10.68
2022-12-18T05:05:29.498Z,15.05
2022-12-18T05:10:37.760Z,21.27
2022-12-18T05:15:41.169Z,7.63
2022-12-18T05:20:43.949Z,6.38
2022-12-18T05:25:57.058Z,14.57
2022-12-18T05:31:01.613Z,23.88
2022-12-18T05:36:07.254Z,15.13
2022-12-18T05:41:10.678Z,11.82
2022-12-18T05:46:16.283Z,20.95
2022-12-18T05:51:21.327Z,15.23
2022-12-18T05:56:24.806Z,17.45
2022-12-18T06:01:28.195Z,13.60
2022-12-18T06:06:31.267Z,12.48
2022-12-18T06:11:33.942Z,22.25
2022-12-18T06:16:36.757Z,25.73
2022-12-18T06:21:39.405Z,21.42
2022-12-18T06:26:42.431Z,16.27
2022-12-18T06:31:45.039Z,19.60
2022-12-18T06:36:47.751Z,21.98
2022-12-18T06:41:50.384Z,13.85
2022-12-18T06:46:53.013Z,11.57
2022-12-18T06:51:55.593Z,13.07
2022-12-18T06:56:58.275Z,14.48
2022-12-18T07:02:01.099Z,23.92
2022-12-18T07:07:04.175Z,22.33
2022-12-18T07:12:08.032Z,18.48
2022-12-18T07:17:10.846Z,22.13
2022-12-18T07:22:13.695Z,16.17
2022-12-18T07:27:16.450Z,16.02
2022-12-18T07:32:19.127Z,23.55
2022-12-18T07:37:22.155Z,30.25
2022-12-18T07:42:33.584Z,25.23
2022-12-18T07:47:39.741Z,35.58
2022-12-18T07:52:42.448Z,18.52
2022-12-18T07:57:55.388Z,24.00
2022-12-18T08:03:00.698Z,30.23
2022-12-18T08:08:03.548Z,16.63
2022-12-18T08:13:06.239Z,25.70
2022-12-18T08:18:13.885Z,21.80
2022-12-18T08:23:17.268Z,24.02
2022-12-18T08:28:19.887Z,27.23
2022-12-18T08:33:22.561Z,17.23
2022-12-18T08:38:25.504Z,21.92
2022-12-18T08:43:47.248Z,23.90
2022-12-18T08:48:52.312Z,39.42
2022-12-18T08:53:54.968Z,37.00
2022-12-18T08:58:58.203Z,26.60
2022-12-18T09:04:00.926Z,39.10
2022-12-18T09:09:05.179Z,31.52
2022-12-18T09:14:07.929Z,30.90
2022-12-18T09:19:11.464Z,39.20
2022-12-18T09:24:15.339Z,23.07
2022-12-18T09:29:18.988Z,31.40
2022-12-18T09:34:23.110Z,37.92
2022-12-18T09:39:25.868Z,16.55
2022-12-18T09:44:45.423Z,27.85
2022-12-18T09:49:56.438Z,37.80
2022-12-18T09:55:10.927Z,30.77
2022-12-18T10:00:21.729Z,39.72
2022-12-18T10:05:33.408Z,36.92
2022-12-18T10:10:49.140Z,40.25
2022-12-18T10:16:13.730Z,45.10
2022-12-18T10:21:59.526Z,46.17
2022-12-18T10:27:18.572Z,47.55
2022-12-18T10:32:24.581Z,43.50
2022-12-18T10:37:29.737Z,43.58
2022-12-18T10:42:32.785Z,44.63
2022-12-18T10:47:35.849Z,61.25
2022-12-18T10:52:43.454Z,47.75
2022-12-18T10:57:47.967Z,51.75
2022-12-18T11:02:51.320Z,47.95
2022-12-18T11:07:55.549Z,45.43
2022-12-18T11:13:11.972Z,52.53
2022-12-18T11:18:23.547Z,49.25
2022-12-18T11:23:28.193Z,46.88
2022-12-18T11:28:38.416Z,52.50
2022-12-18T11:34:04.873Z,43.17
2022-12-18T11:39:21.417Z,57.97
2022-12-18T11:44:36.945Z,43.90
2022-12-18T11:49:42.677Z,43.95
2022-12-18T11:54:45.950Z,50.33
2022-12-18T12:00:14.424Z,47.33
2022-12-18T12:05:40.067Z,46.92
2022-12-18T12:11:01.307Z,47.47
2022-12-18T12:16:18.517Z,49.10
2022-12-18T12:21:35.070Z,47.50
2022-12-18T12:26:47.158Z,40.03
2022-12-18T12:32:18.958Z,42.95
2022-12-18T12:37:46.347Z,41.15
2022-12-18T12:43:16.416Z,39.88
2022-12-18T12:48:33.978Z,36.33
2022-12-18T12:53:40.422Z,32.93
2022-12-18T12:58:44.049Z,33.58
2022-12-18T13:04:05.188Z,30.17
2022-12-18T13:09:08.048Z,26.95
2022-12-18T13:14:23.146Z,31.65
2022-12-18T13:19:28.121Z,30.00
2022-12-18T13:24:33.595Z,28.48
2022-12-18T13:29:47.496Z,32.25
2022-12-18T13:35:10.309Z,29.20
2022-12-18T13:40:42.758Z,27.20
2022-12-18T13:46:07.721Z,26.30
2022-12-18T13:51:12.498Z,24.65
2022-12-18T13:56:21.181Z,30.58
2022-12-18T14:01:25.624Z,24.70
2022-12-18T14:06:28.613Z,22.60
2022-12-18T14:11:31.580Z,29.17
2022-12-18T14:16:36.050Z,26.00
2022-12-18T14:21:39.800Z,32.53
2022-12-18T14:26:43.869Z,20.20
2022-12-18T14:31:46.652Z,32.58
2022-12-18T14:36:57.361Z,35.00
2022-12-18T14:42:00.132Z,28.55
2022-12-18T14:47:02.831Z,29.75
2022-12-18T14:52:18.945Z,29.23
2022-12-18T14:57:30.617Z,22.20
2022-12-18T15:02:36.855Z,22.37
2022-12-18T15:07:53.500Z,11.50
2022-12-18T15:13:03.608Z,22.08
2022-12-18T15:18:14.278Z,17.63
2022-12-18T15:23:24.508Z,16.98
2022-12-18T15:28:30.709Z,23.27
2022-12-18T15:33:42.522Z,22.75
2022-12-18T15:38:49.929Z,30.08
2022-12-18T15:43:53.918Z,19.23
2022-12-18T15:49:02.132Z,20.25
2022-12-18T15:54:10.508Z,25.87
2022-12-18T15:59:16.434Z,17.13
2022-12-18T16:04:23.830Z,16.48
2022-12-18T16:09:26.745Z,14.65
2022-12-18T16:14:32.468Z,18.20
2022-12-18T16:19:35.081Z,16.50
2022-12-18T16:24:38.709Z,25.48
2022-12-18T16:29:41.617Z,18.35
2022-12-18T16:34:45.128Z,18.67
2022-12-18T16:39:47.849Z,22.90
2022-12-18T16:44:51.019Z,25.53
2022-12-18T16:49:53.874Z,33.20
2022-12-18T16:54:56.856Z,120.25
2022-12-18T17:00:04.741Z,92.85
2022-12-18T17:05:08.330Z,24.83
2022-12-18T17:10:11.179Z,24.60
2022-12-18T17:15:14.586Z,28.15
2022-12-18T17:20:17.659Z,22.20
2022-12-18T17:25:22.928Z,26.52
2022-12-18T17:30:27.089Z,27.10
2022-12-18T17:35:30.794Z,27.00
2022-12-18T17:40:34.589Z,33.25
2022-12-18T17:45:39.049Z,23.80
2022-12-18T17:50:42.068Z,9.88
2022-12-18T17:55:44.885Z,7.53
2022-12-18T18:00:48.056Z,15.40
2022-12-18T18:08:01.830Z,16.47
2022-12-18T18:13:46.667Z,22.98
2022-12-18T18:18:49.928Z,23.33
2022-12-18T18:23:52.747Z,24.70
2022-12-18T18:28:56.099Z,18.05
2022-12-18T18:33:59.539Z,14.47
2022-12-18T18:39:02.427Z,14.95
2022-12-18T18:44:05.459Z,22.48
2022-12-18T18:49:08.270Z,13.77
2022-12-18T18:54:11.237Z,23.05
2022-12-18T18:59:14.020Z,13.10
2022-12-18T19:04:16.792Z,15.88
2022-12-18T19:09:19.559Z,19.25
2022-12-18T19:14:22.653Z,10.70
2022-12-18T19:19:25.596Z,21.30
2022-12-18T20:00:30.400Z,6.30
2022-12-18T20:05:33.351Z,14.60
2022-12-18T20:10:36.190Z,21.75
2022-12-18T20:15:43.489Z,23.83
2022-12-18T20:20:48.186Z,12.68
2022-12-18T20:25:54.180Z,14.10
2022-12-18T20:31:06.719Z,13.95
2022-12-18T20:36:15.570Z,12.68
2022-12-18T20:41:23.831Z,18.73
2022-12-18T20:46:26.716Z,16.13
2022-12-18T20:51:30.866Z,8.33
2022-12-18T20:56:33.780Z,10.02
2022-12-18T21:01:36.675Z,10.70
2022-12-18T21:06:42.854Z,15.27
2022-12-18T21:12:05.888Z,9.02
2022-12-18T21:17:08.771Z,14.90
2022-12-18T21:22:12.207Z,12.15
2022-12-18T21:27:16.456Z,16.23
2022-12-18T21:32:20.868Z,10.33
2022-12-18T21:37:41.491Z,10.38
2022-12-18T21:43:03.049Z,20.17
2022-12-18T21:48:06.149Z,10.07
2022-12-18T21:53:09.222Z,27.60
2022-12-18T21:58:12.002Z,20.65
2022-12-18T22:03:18.321Z,20.10
2022-12-18T22:08:21.861Z,10.93
2022-12-18T22:13:24.588Z,10.48
2022-12-18T22:18:27.679Z,9.60
2022-12-18T22:23:31.117Z,10.90
2022-12-18T22:28:52.204Z,6.32
2022-12-18T22:33:55.014Z,19.27
2022-12-18T22:38:57.592Z,5.22
2022-12-18T22:44:00.212Z,25.65
2022-12-18T22:49:02.940Z,18.45
2022-12-18T22:54:05.753Z,21.08
2022-12-18T22:59:09.439Z,9.00
2022-12-18T23:04:12.516Z,10.88
2022-12-18T23:09:17.823Z,16.58
2022-12-18T23:14:21.067Z,11.38
2022-12-18T23:19:24.412Z,23.60
2022-12-18T23:24:27.072Z,10.50
2022-12-18T23:29:29.718Z,25.85
2022-12-18T23:34:32.388Z,19.23
2022-12-18T23:39:35.017Z,11.45
2022-12-18T23:44:37.657Z,19.83
2022-12-18T23:49:40.384Z,11.87
2022-12-18T23:54:43.684Z,23.58
2022-12-18T23:59:46.384Z,26.75
